sensor_id;sensor_type;location;lat;lon;timestamp;P1;durP1;ratioP1;P2;durP2;ratioP2
16689;SDS011;8458;52.220;9.884;2023-01-28T00:01:12;1.07;;;0.53;;
16689;SDS011;8458;52.220;9.884;2023-01-28T00:03:41;1.13;;;0.47;;
16689;SDS011;8458;52.220;9.884;2023-01-28T00:06:08;0.97;;;0.40;;
16689;SDS011;8458;52.220;9.884;2023-01-28T00:08:36;0.83;;;0.50;;
16689;SDS011;8458;52.220;9.884;2023-01-28T00:11:03;1.20;;;0.57;;
16689;SDS011;8458;52.220;9.884;2023-01-28T00:13:31;0.77;;;0.50;;
16689;SDS011;8458;52.220;9.884;2023-01-28T00:15:59;0.63;;;0.40;;
16689;SDS011;8458;52.220;9.884;2023-01-28T00:18:26;2.00;;;0.50;;
16689;SDS011;8458;52.220;9.884;2023-01-28T00:20:58;2.27;;;0.70;;
16689;SDS011;8458;52.220;9.884;2023-01-28T00:23:25;0.67;;;0.40;;
16689;SDS011;8458;52.220;9.884;2023-01-28T00:25:53;0.63;;;0.50;;
16689;SDS011;8458;52.220;9.884;2023-01-28T00:28:20;1.67;;;0.50;;
16689;SDS011;8458;52.220;9.884;2023-01-28T00:30:46;0.90;;;0.70;;
16689;SDS011;8458;52.220;9.884;2023-01-28T00:33:13;1.40;;;0.50;;
16689;SDS011;8458;52.220;9.884;2023-01-28T00:35:39;1.00;;;0.60;;
16689;SDS011;8458;52.220;9.884;2023-01-28T00:38:07;3.07;;;1.57;;
16689;SDS011;8458;52.220;9.884;2023-01-28T00:40:34;2.23;;;1.10;;
16689;SDS011;8458;52.220;9.884;2023-01-28T00:43:01;1.20;;;0.60;;
16689;SDS011;8458;52.220;9.884;2023-01-28T00:45:28;1.27;;;0.60;;
16689;SDS011;8458;52.220;9.884;2023-01-28T00:47:54;0.40;;;0.40;;
16689;SDS011;8458;52.220;9.884;2023-01-28T00:50:21;1.37;;;0.40;;
16689;SDS011;8458;52.220;9.884;2023-01-28T00:52:47;1.03;;;0.40;;
16689;SDS011;8458;52.220;9.884;2023-01-28T00:55:15;1.27;;;0.43;;
16689;SDS011;8458;52.220;9.884;2023-01-28T00:57:42;2.20;;;0.53;;
16689;SDS011;8458;52.220;9.884;2023-01-28T01:00:09;2.03;;;0.50;;
16689;SDS011;8458;52.220;9.884;2023-01-28T01:02:36;1.53;;;0.40;;
16689;SDS011;8458;52.220;9.884;2023-01-28T01:05:02;2.17;;;0.50;;
16689;SDS011;8458;52.220;9.884;2023-01-28T01:07:29;1.83;;;0.57;;
16689;SDS011;8458;52.220;9.884;2023-01-28T01:10:06;1.03;;;0.50;;
16689;SDS011;8458;52.220;9.884;2023-01-28T01:12:36;0.73;;;0.50;;
16689;SDS011;8458;52.220;9.884;2023-01-28T01:15:03;0.57;;;0.40;;
16689;SDS011;8458;52.220;9.884;2023-01-28T01:17:32;1.07;;;0.60;;
16689;SDS011;8458;52.220;9.884;2023-01-28T01:20:01;0.97;;;0.50;;
16689;SDS011;8458;52.220;9.884;2023-01-28T01:22:28;1.63;;;0.60;;
16689;SDS011;8458;52.220;9.884;2023-01-28T01:24:57;1.67;;;0.50;;
16689;SDS011;8458;52.220;9.884;2023-01-28T01:27:24;1.47;;;0.57;;
16689;SDS011;8458;52.220;9.884;2023-01-28T01:29:51;0.67;;;0.50;;
16689;SDS011;8458;52.220;9.884;2023-01-28T01:32:18;1.40;;;0.70;;
16689;SDS011;8458;52.220;9.884;2023-01-28T01:34:46;0.87;;;0.43;;
16689;SDS011;8458;52.220;9.884;2023-01-28T01:37:13;0.70;;;0.60;;
16689;SDS011;8458;52.220;9.884;2023-01-28T01:39:40;1.03;;;0.50;;
16689;SDS011;8458;52.220;9.884;2023-01-28T01:42:07;1.17;;;0.47;;
16689;SDS011;8458;52.220;9.884;2023-01-28T01:44:46;0.80;;;0.60;;
16689;SDS011;8458;52.220;9.884;2023-01-28T01:47:20;1.30;;;0.50;;
16689;SDS011;8458;52.220;9.884;2023-01-28T01:49:50;0.80;;;0.50;;
16689;SDS011;8458;52.220;9.884;2023-01-28T01:52:18;1.60;;;0.40;;
16689;SDS011;8458;52.220;9.884;2023-01-28T01:54:50;0.53;;;0.50;;
16689;SDS011;8458;52.220;9.884;2023-01-28T01:57:20;1.13;;;0.60;;
16689;SDS011;8458;52.220;9.884;2023-01-28T01:59:53;1.60;;;0.50;;
16689;SDS011;8458;52.220;9.884;2023-01-28T02:02:28;1.00;;;0.40;;
16689;SDS011;8458;52.220;9.884;2023-01-28T02:04:55;1.03;;;0.50;;
16689;SDS011;8458;52.220;9.884;2023-01-28T02:07:22;1.17;;;0.50;;
16689;SDS011;8458;52.220;9.884;2023-01-28T02:09:48;1.63;;;0.40;;
16689;SDS011;8458;52.220;9.884;2023-01-28T02:12:16;0.43;;;0.37;;
16689;SDS011;8458;52.220;9.884;2023-01-28T02:14:46;1.07;;;0.50;;
16689;SDS011;8458;52.220;9.884;2023-01-28T02:17:20;0.50;;;0.40;;
16689;SDS011;8458;52.220;9.884;2023-01-28T02:19:48;0.90;;;0.40;;
16689;SDS011;8458;52.220;9.884;2023-01-28T02:22:23;0.50;;;0.47;;
16689;SDS011;8458;52.220;9.884;2023-01-28T02:25:19;0.90;;;0.50;;
16689;SDS011;8458;52.220;9.884;2023-01-28T02:28:12;1.87;;;0.40;;
16689;SDS011;8458;52.220;9.884;2023-01-28T02:30:48;1.47;;;0.40;;
16689;SDS011;8458;52.220;9.884;2023-01-28T02:33:18;1.87;;;0.40;;
16689;SDS011;8458;52.220;9.884;2023-01-28T02:35:52;1.17;;;0.43;;
16689;SDS011;8458;52.220;9.884;2023-01-28T02:38:20;1.90;;;0.60;;
16689;SDS011;8458;52.220;9.884;2023-01-28T02:40:52;0.70;;;0.50;;
16689;SDS011;8458;52.220;9.884;2023-01-28T02:43:32;1.37;;;0.47;;
16689;SDS011;8458;52.220;9.884;2023-01-28T02:46:01;1.17;;;0.40;;
16689;SDS011;8458;52.220;9.884;2023-01-28T02:48:56;1.43;;;0.70;;
16689;SDS011;8458;52.220;9.884;2023-01-28T02:51:28;0.87;;;0.50;;
16689;SDS011;8458;52.220;9.884;2023-01-28T02:54:06;1.73;;;0.50;;
16689;SDS011;8458;52.220;9.884;2023-01-28T02:56:37;0.90;;;0.60;;
16689;SDS011;8458;52.220;9.884;2023-01-28T02:59:12;0.87;;;0.47;;
16689;SDS011;8458;52.220;9.884;2023-01-28T03:01:59;0.73;;;0.40;;
16689;SDS011;8458;52.220;9.884;2023-01-28T03:04:33;0.93;;;0.40;;
16689;SDS011;8458;52.220;9.884;2023-01-28T03:07:07;0.90;;;0.43;;
16689;SDS011;8458;52.220;9.884;2023-01-28T03:09:36;2.10;;;0.50;;
16689;SDS011;8458;52.220;9.884;2023-01-28T03:12:07;1.33;;;0.43;;
16689;SDS011;8458;52.220;9.884;2023-01-28T03:14:55;0.83;;;0.40;;
16689;SDS011;8458;52.220;9.884;2023-01-28T03:17:42;0.47;;;0.37;;
16689;SDS011;8458;52.220;9.884;2023-01-28T03:20:33;0.50;;;0.50;;
16689;SDS011;8458;52.220;9.884;2023-01-28T03:23:22;0.60;;;0.50;;
16689;SDS011;8458;52.220;9.884;2023-01-28T03:26:11;0.40;;;0.37;;
16689;SDS011;8458;52.220;9.884;2023-01-28T03:28:59;0.90;;;0.40;;
16689;SDS011;8458;52.220;9.884;2023-01-28T03:31:50;3.13;;;0.40;;
16689;SDS011;8458;52.220;9.884;2023-01-28T03:34:36;1.27;;;0.47;;
16689;SDS011;8458;52.220;9.884;2023-01-28T03:37:20;1.47;;;0.50;;
16689;SDS011;8458;52.220;9.884;2023-01-28T03:39:47;0.77;;;0.40;;
16689;SDS011;8458;52.220;9.884;2023-01-28T03:42:14;0.80;;;0.50;;
16689;SDS011;8458;52.220;9.884;2023-01-28T03:44:42;0.67;;;0.47;;
16689;SDS011;8458;52.220;9.884;2023-01-28T03:47:17;0.90;;;0.40;;
16689;SDS011;8458;52.220;9.884;2023-01-28T03:49:44;0.50;;;0.40;;
16689;SDS011;8458;52.220;9.884;2023-01-28T03:52:13;0.77;;;0.33;;
16689;SDS011;8458;52.220;9.884;2023-01-28T03:54:40;0.97;;;0.53;;
16689;SDS011;8458;52.220;9.884;2023-01-28T03:57:07;0.53;;;0.40;;
16689;SDS011;8458;52.220;9.884;2023-01-28T03:59:33;1.20;;;0.60;;
16689;SDS011;8458;52.220;9.884;2023-01-28T04:02:00;0.87;;;0.50;;
16689;SDS011;8458;52.220;9.884;2023-01-28T04:04:28;1.20;;;0.40;;
16689;SDS011;8458;52.220;9.884;2023-01-28T04:06:56;0.73;;;0.47;;
16689;SDS011;8458;52.220;9.884;2023-01-28T04:09:23;0.80;;;0.40;;
16689;SDS011;8458;52.220;9.884;2023-01-28T04:11:50;1.53;;;0.50;;
16689;SDS011;8458;52.220;9.884;2023-01-28T04:14:16;0.90;;;0.40;;
16689;SDS011;8458;52.220;9.884;2023-01-28T04:16:43;0.77;;;0.50;;
16689;SDS011;8458;52.220;9.884;2023-01-28T04:19:10;1.43;;;0.60;;
16689;SDS011;8458;52.220;9.884;2023-01-28T04:21:39;1.40;;;0.40;;
16689;SDS011;8458;52.220;9.884;2023-01-28T04:24:06;0.80;;;0.57;;
16689;SDS011;8458;52.220;9.884;2023-01-28T04:26:32;0.90;;;0.47;;
16689;SDS011;8458;52.220;9.884;2023-01-28T04:28:59;1.33;;;0.57;;
16689;SDS011;8458;52.220;9.884;2023-01-28T04:31:25;1.20;;;0.50;;
16689;SDS011;8458;52.220;9.884;2023-01-28T04:33:52;1.43;;;0.50;;
16689;SDS011;8458;52.220;9.884;2023-01-28T04:36:18;1.33;;;0.40;;
16689;SDS011;8458;52.220;9.884;2023-01-28T04:38:46;0.47;;;0.30;;
16689;SDS011;8458;52.220;9.884;2023-01-28T04:41:12;1.13;;;0.60;;
16689;SDS011;8458;52.220;9.884;2023-01-28T04:43:39;1.27;;;0.47;;
16689;SDS011;8458;52.220;9.884;2023-01-28T04:46:05;1.67;;;0.50;;
16689;SDS011;8458;52.220;9.884;2023-01-28T04:48:32;0.80;;;0.40;;
16689;SDS011;8458;52.220;9.884;2023-01-28T04:51:00;0.57;;;0.40;;
16689;SDS011;8458;52.220;9.884;2023-01-28T04:53:27;1.50;;;0.40;;
16689;SDS011;8458;52.220;9.884;2023-01-28T04:55:55;0.80;;;0.40;;
16689;SDS011;8458;52.220;9.884;2023-01-28T04:58:21;0.50;;;0.40;;
16689;SDS011;8458;52.220;9.884;2023-01-28T05:00:50;1.60;;;0.50;;
16689;SDS011;8458;52.220;9.884;2023-01-28T05:03:19;0.60;;;0.40;;
16689;SDS011;8458;52.220;9.884;2023-01-28T05:05:46;1.73;;;0.60;;
16689;SDS011;8458;52.220;9.884;2023-01-28T05:08:13;0.67;;;0.50;;
16689;SDS011;8458;52.220;9.884;2023-01-28T05:10:40;1.07;;;0.63;;
16689;SDS011;8458;52.220;9.884;2023-01-28T05:13:08;0.93;;;0.40;;
16689;SDS011;8458;52.220;9.884;2023-01-28T05:15:34;0.97;;;0.50;;
16689;SDS011;8458;52.220;9.884;2023-01-28T05:18:00;1.33;;;0.60;;
16689;SDS011;8458;52.220;9.884;2023-01-28T05:20:27;0.60;;;0.50;;
16689;SDS011;8458;52.220;9.884;2023-01-28T05:22:53;0.60;;;0.60;;
16689;SDS011;8458;52.220;9.884;2023-01-28T05:25:20;1.17;;;0.50;;
16689;SDS011;8458;52.220;9.884;2023-01-28T05:27:48;0.67;;;0.33;;
16689;SDS011;8458;52.220;9.884;2023-01-28T05:30:17;0.93;;;0.50;;
16689;SDS011;8458;52.220;9.884;2023-01-28T05:32:44;0.47;;;0.40;;
16689;SDS011;8458;52.220;9.884;2023-01-28T05:35:11;0.47;;;0.40;;
16689;SDS011;8458;52.220;9.884;2023-01-28T05:37:37;1.60;;;0.40;;
16689;SDS011;8458;52.220;9.884;2023-01-28T05:40:04;0.77;;;0.50;;
16689;SDS011;8458;52.220;9.884;2023-01-28T05:42:31;0.70;;;0.50;;
16689;SDS011;8458;52.220;9.884;2023-01-28T05:44:58;1.70;;;0.47;;
16689;SDS011;8458;52.220;9.884;2023-01-28T05:47:26;0.87;;;0.60;;
16689;SDS011;8458;52.220;9.884;2023-01-28T05:49:52;4.17;;;0.70;;
16689;SDS011;8458;52.220;9.884;2023-01-28T05:52:19;1.57;;;1.00;;
16689;SDS011;8458;52.220;9.884;2023-01-28T05:54:45;2.73;;;1.40;;
16689;SDS011;8458;52.220;9.884;2023-01-28T05:57:12;2.13;;;1.67;;
16689;SDS011;8458;52.220;9.884;2023-01-28T05:59:38;3.90;;;1.83;;
16689;SDS011;8458;52.220;9.884;2023-01-28T06:02:05;1.90;;;1.30;;
16689;SDS011;8458;52.220;9.884;2023-01-28T06:04:33;1.70;;;1.27;;
16689;SDS011;8458;52.220;9.884;2023-01-28T06:06:59;1.87;;;1.17;;
16689;SDS011;8458;52.220;9.884;2023-01-28T06:09:26;0.90;;;0.90;;
16689;SDS011;8458;52.220;9.884;2023-01-28T06:11:52;1.50;;;0.83;;
16689;SDS011;8458;52.220;9.884;2023-01-28T06:14:18;1.27;;;0.60;;
16689;SDS011;8458;52.220;9.884;2023-01-28T06:16:45;1.40;;;0.60;;
16689;SDS011;8458;52.220;9.884;2023-01-28T06:19:11;1.47;;;0.60;;
16689;SDS011;8458;52.220;9.884;2023-01-28T06:21:39;1.07;;;0.50;;
16689;SDS011;8458;52.220;9.884;2023-01-28T06:24:07;1.20;;;0.60;;
16689;SDS011;8458;52.220;9.884;2023-01-28T06:26:33;0.90;;;0.57;;
16689;SDS011;8458;52.220;9.884;2023-01-28T06:29:00;0.90;;;0.90;;
16689;SDS011;8458;52.220;9.884;2023-01-28T06:31:26;1.97;;;1.00;;
16689;SDS011;8458;52.220;9.884;2023-01-28T06:33:53;1.70;;;0.60;;
16689;SDS011;8458;52.220;9.884;2023-01-28T06:36:19;0.73;;;0.40;;
16689;SDS011;8458;52.220;9.884;2023-01-28T06:38:47;1.43;;;0.50;;
16689;SDS011;8458;52.220;9.884;2023-01-28T06:41:13;0.93;;;0.50;;
16689;SDS011;8458;52.220;9.884;2023-01-28T06:43:40;2.07;;;0.70;;
16689;SDS011;8458;52.220;9.884;2023-01-28T06:46:06;0.70;;;0.50;;
16689;SDS011;8458;52.220;9.884;2023-01-28T06:48:33;2.40;;;0.60;;
16689;SDS011;8458;52.220;9.884;2023-01-28T06:50:59;1.47;;;1.00;;
16689;SDS011;8458;52.220;9.884;2023-01-28T06:53:26;1.20;;;1.07;;
16689;SDS011;8458;52.220;9.884;2023-01-28T06:55:53;2.70;;;1.00;;
16689;SDS011;8458;52.220;9.884;2023-01-28T06:58:20;1.13;;;0.60;;
16689;SDS011;8458;52.220;9.884;2023-01-28T07:00:46;1.50;;;1.13;;
16689;SDS011;8458;52.220;9.884;2023-01-28T07:03:13;3.10;;;1.13;;
16689;SDS011;8458;52.220;9.884;2023-01-28T07:05:39;4.57;;;0.97;;
16689;SDS011;8458;52.220;9.884;2023-01-28T07:08:06;1.07;;;0.80;;
16689;SDS011;8458;52.220;9.884;2023-01-28T07:10:32;1.47;;;0.90;;
16689;SDS011;8458;52.220;9.884;2023-01-28T07:13:00;1.93;;;0.83;;
16689;SDS011;8458;52.220;9.884;2023-01-28T07:15:27;0.83;;;0.50;;
16689;SDS011;8458;52.220;9.884;2023-01-28T07:17:53;10.67;;;9.87;;
16689;SDS011;8458;52.220;9.884;2023-01-28T07:20:20;3.70;;;3.30;;
16689;SDS011;8458;52.220;9.884;2023-01-28T07:22:47;2.10;;;1.90;;
16689;SDS011;8458;52.220;9.884;2023-01-28T07:25:13;2.03;;;0.90;;
16689;SDS011;8458;52.220;9.884;2023-01-28T07:27:44;2.27;;;0.80;;
16689;SDS011;8458;52.220;9.884;2023-01-28T07:30:14;1.20;;;0.70;;
16689;SDS011;8458;52.220;9.884;2023-01-28T07:32:42;1.97;;;0.70;;
16689;SDS011;8458;52.220;9.884;2023-01-28T07:35:09;2.27;;;0.60;;
16689;SDS011;8458;52.220;9.884;2023-01-28T07:37:36;1.60;;;0.67;;
16689;SDS011;8458;52.220;9.884;2023-01-28T07:40:03;0.47;;;0.40;;
16689;SDS011;8458;52.220;9.884;2023-01-28T07:42:30;0.97;;;0.50;;
16689;SDS011;8458;52.220;9.884;2023-01-28T07:44:57;1.20;;;0.40;;
16689;SDS011;8458;52.220;9.884;2023-01-28T07:47:24;0.87;;;0.50;;
16689;SDS011;8458;52.220;9.884;2023-01-28T07:49:51;0.43;;;0.40;;
16689;SDS011;8458;52.220;9.884;2023-01-28T07:52:18;1.00;;;0.43;;
16689;SDS011;8458;52.220;9.884;2023-01-28T07:54:44;1.00;;;0.60;;
16689;SDS011;8458;52.220;9.884;2023-01-28T07:57:11;0.70;;;0.70;;
16689;SDS011;8458;52.220;9.884;2023-01-28T07:59:37;0.73;;;0.60;;
16689;SDS011;8458;52.220;9.884;2023-01-28T08:02:04;1.10;;;0.60;;
16689;SDS011;8458;52.220;9.884;2023-01-28T08:04:32;0.60;;;0.50;;
16689;SDS011;8458;52.220;9.884;2023-01-28T08:06:59;1.30;;;0.60;;
16689;SDS011;8458;52.220;9.884;2023-01-28T08:09:25;0.93;;;0.50;;
16689;SDS011;8458;52.220;9.884;2023-01-28T08:11:51;0.93;;;0.80;;
16689;SDS011;8458;52.220;9.884;2023-01-28T08:14:18;1.33;;;0.80;;
16689;SDS011;8458;52.220;9.884;2023-01-28T08:16:44;1.70;;;0.73;;
16689;SDS011;8458;52.220;9.884;2023-01-28T08:19:12;1.00;;;0.80;;
16689;SDS011;8458;52.220;9.884;2023-01-28T08:21:40;1.37;;;0.60;;
16689;SDS011;8458;52.220;9.884;2023-01-28T08:24:06;1.73;;;0.60;;
16689;SDS011;8458;52.220;9.884;2023-01-28T08:26:33;1.33;;;0.60;;
16689;SDS011;8458;52.220;9.884;2023-01-28T08:28:59;0.70;;;0.60;;
16689;SDS011;8458;52.220;9.884;2023-01-28T08:31:26;1.60;;;0.70;;
16689;SDS011;8458;52.220;9.884;2023-01-28T08:33:53;1.20;;;0.60;;
16689;SDS011;8458;52.220;9.884;2023-01-28T08:36:20;1.80;;;1.53;;
16689;SDS011;8458;52.220;9.884;2023-01-28T08:38:47;2.10;;;1.03;;
16689;SDS011;8458;52.220;9.884;2023-01-28T08:41:19;1.40;;;0.73;;
16689;SDS011;8458;52.220;9.884;2023-01-28T08:43:46;1.77;;;1.07;;
16689;SDS011;8458;52.220;9.884;2023-01-28T08:46:13;2.67;;;1.80;;
16689;SDS011;8458;52.220;9.884;2023-01-28T08:48:40;4.07;;;2.77;;
16689;SDS011;8458;52.220;9.884;2023-01-28T08:51:07;3.07;;;1.80;;
16689;SDS011;8458;52.220;9.884;2023-01-28T08:53:33;2.27;;;1.23;;
16689;SDS011;8458;52.220;9.884;2023-01-28T08:56:01;1.30;;;1.13;;
16689;SDS011;8458;52.220;9.884;2023-01-28T08:58:28;2.07;;;1.30;;
16689;SDS011;8458;52.220;9.884;2023-01-28T09:00:54;0.50;;;0.50;;
16689;SDS011;8458;52.220;9.884;2023-01-28T09:03:21;0.60;;;0.60;;
16689;SDS011;8458;52.220;9.884;2023-01-28T09:05:47;0.90;;;0.60;;
16689;SDS011;8458;52.220;9.884;2023-01-28T09:08:14;0.60;;;0.50;;
16689;SDS011;8458;52.220;9.884;2023-01-28T09:10:41;0.90;;;0.67;;
16689;SDS011;8458;52.220;9.884;2023-01-28T09:13:09;1.27;;;1.17;;
16689;SDS011;8458;52.220;9.884;2023-01-28T09:15:37;1.40;;;1.30;;
16689;SDS011;8458;52.220;9.884;2023-01-28T09:18:03;2.47;;;1.30;;
16689;SDS011;8458;52.220;9.884;2023-01-28T09:20:30;1.77;;;0.87;;
16689;SDS011;8458;52.220;9.884;2023-01-28T09:22:57;1.00;;;0.67;;
16689;SDS011;8458;52.220;9.884;2023-01-28T09:25:25;1.17;;;0.80;;
16689;SDS011;8458;52.220;9.884;2023-01-28T09:27:52;1.33;;;0.80;;
16689;SDS011;8458;52.220;9.884;2023-01-28T09:30:20;2.00;;;1.50;;
16689;SDS011;8458;52.220;9.884;2023-01-28T09:32:48;1.77;;;1.00;;
16689;SDS011;8458;52.220;9.884;2023-01-28T09:35:15;1.30;;;0.90;;
16689;SDS011;8458;52.220;9.884;2023-01-28T09:37:43;1.17;;;0.90;;
16689;SDS011;8458;52.220;9.884;2023-01-28T09:40:10;1.23;;;0.80;;
16689;SDS011;8458;52.220;9.884;2023-01-28T09:45:35;2.17;;;0.77;;
16689;SDS011;8458;52.220;9.884;2023-01-28T09:48:07;2.60;;;1.00;;
16689;SDS011;8458;52.220;9.884;2023-01-28T09:50:39;1.23;;;0.83;;
16689;SDS011;8458;52.220;9.884;2023-01-28T09:53:09;2.30;;;0.80;;
16689;SDS011;8458;52.220;9.884;2023-01-28T09:55:42;1.13;;;1.03;;
16689;SDS011;8458;52.220;9.884;2023-01-28T09:58:11;1.87;;;1.00;;
16689;SDS011;8458;52.220;9.884;2023-01-28T10:00:45;0.90;;;0.90;;
16689;SDS011;8458;52.220;9.884;2023-01-28T10:03:39;1.27;;;0.90;;
16689;SDS011;8458;52.220;9.884;2023-01-28T10:06:19;2.50;;;0.80;;
16689;SDS011;8458;52.220;9.884;2023-01-28T10:09:00;1.93;;;0.90;;
16689;SDS011;8458;52.220;9.884;2023-01-28T10:11:46;5.77;;;3.77;;
16689;SDS011;8458;52.220;9.884;2023-01-28T10:14:21;3.00;;;2.17;;
16689;SDS011;8458;52.220;9.884;2023-01-28T10:17:00;1.70;;;1.13;;
16689;SDS011;8458;52.220;9.884;2023-01-28T10:19:36;1.90;;;1.70;;
16689;SDS011;8458;52.220;9.884;2023-01-28T10:22:10;1.93;;;1.30;;
16689;SDS011;8458;52.220;9.884;2023-01-28T10:24:43;1.83;;;1.03;;
16689;SDS011;8458;52.220;9.884;2023-01-28T10:27:14;1.73;;;1.00;;
16689;SDS011;8458;52.220;9.884;2023-01-28T10:29:44;1.33;;;1.10;;
16689;SDS011;8458;52.220;9.884;2023-01-28T10:32:16;1.37;;;1.20;;
16689;SDS011;8458;52.220;9.884;2023-01-28T10:34:48;2.17;;;1.40;;
16689;SDS011;8458;52.220;9.884;2023-01-28T10:37:16;1.30;;;1.20;;
16689;SDS011;8458;52.220;9.884;2023-01-28T10:39:43;1.70;;;1.43;;
16689;SDS011;8458;52.220;9.884;2023-01-28T10:42:15;1.60;;;1.40;;
16689;SDS011;8458;52.220;9.884;2023-01-28T10:44:51;1.40;;;1.30;;
16689;SDS011;8458;52.220;9.884;2023-01-28T10:47:28;2.40;;;1.60;;
16689;SDS011;8458;52.220;9.884;2023-01-28T10:49:58;1.90;;;1.70;;
16689;SDS011;8458;52.220;9.884;2023-01-28T10:52:24;3.43;;;3.13;;
16689;SDS011;8458;52.220;9.884;2023-01-28T10:54:57;2.50;;;2.30;;
16689;SDS011;8458;52.220;9.884;2023-01-28T10:57:25;2.87;;;2.27;;
16689;SDS011;8458;52.220;9.884;2023-01-28T10:59:51;2.00;;;1.60;;
16689;SDS011;8458;52.220;9.884;2023-01-28T11:02:25;1.57;;;1.47;;
16689;SDS011;8458;52.220;9.884;2023-01-28T11:05:03;1.53;;;1.30;;
16689;SDS011;8458;52.220;9.884;2023-01-28T11:07:32;1.43;;;1.23;;
16689;SDS011;8458;52.220;9.884;2023-01-28T11:10:00;1.53;;;1.40;;
16689;SDS011;8458;52.220;9.884;2023-01-28T11:12:27;2.17;;;1.50;;
16689;SDS011;8458;52.220;9.884;2023-01-28T11:14:55;2.13;;;1.70;;
16689;SDS011;8458;52.220;9.884;2023-01-28T11:17:24;1.50;;;1.40;;
16689;SDS011;8458;52.220;9.884;2023-01-28T11:19:53;2.10;;;1.97;;
16689;SDS011;8458;52.220;9.884;2023-01-28T11:22:23;1.50;;;1.40;;
16689;SDS011;8458;52.220;9.884;2023-01-28T11:24:56;1.90;;;1.73;;
16689;SDS011;8458;52.220;9.884;2023-01-28T11:27:24;1.80;;;1.60;;
16689;SDS011;8458;52.220;9.884;2023-01-28T11:29:54;1.80;;;1.70;;
16689;SDS011;8458;52.220;9.884;2023-01-28T11:32:24;2.63;;;2.37;;
16689;SDS011;8458;52.220;9.884;2023-01-28T11:34:52;2.60;;;2.40;;
16689;SDS011;8458;52.220;9.884;2023-01-28T11:37:22;2.90;;;2.70;;
16689;SDS011;8458;52.220;9.884;2023-01-28T11:39:59;2.20;;;2.10;;
16689;SDS011;8458;52.220;9.884;2023-01-28T11:42:26;1.90;;;1.80;;
16689;SDS011;8458;52.220;9.884;2023-01-28T11:44:53;2.77;;;1.90;;
16689;SDS011;8458;52.220;9.884;2023-01-28T11:47:27;2.10;;;2.00;;
16689;SDS011;8458;52.220;9.884;2023-01-28T11:52:54;2.70;;;2.13;;
16689;SDS011;8458;52.220;9.884;2023-01-28T11:55:33;2.50;;;1.70;;
16689;SDS011;8458;52.220;9.884;2023-01-28T11:58:06;2.03;;;1.70;;
16689;SDS011;8458;52.220;9.884;2023-01-28T12:00:44;1.87;;;1.70;;
16689;SDS011;8458;52.220;9.884;2023-01-28T12:06:21;2.00;;;1.90;;
16689;SDS011;8458;52.220;9.884;2023-01-28T12:09:00;1.83;;;1.73;;
16689;SDS011;8458;52.220;9.884;2023-01-28T12:11:39;2.57;;;2.37;;
16689;SDS011;8458;52.220;9.884;2023-01-28T12:14:38;2.03;;;1.70;;
16689;SDS011;8458;52.220;9.884;2023-01-28T12:17:40;2.67;;;1.93;;
16689;SDS011;8458;52.220;9.884;2023-01-28T12:20:19;2.20;;;2.10;;
16689;SDS011;8458;52.220;9.884;2023-01-28T12:23:06;2.43;;;2.23;;
16689;SDS011;8458;52.220;9.884;2023-01-28T12:25:48;1.90;;;1.70;;
16689;SDS011;8458;52.220;9.884;2023-01-28T12:28:43;2.33;;;1.70;;
16689;SDS011;8458;52.220;9.884;2023-01-28T12:31:27;2.80;;;1.87;;
16689;SDS011;8458;52.220;9.884;2023-01-28T12:34:08;2.00;;;1.90;;
16689;SDS011;8458;52.220;9.884;2023-01-28T12:36:48;2.20;;;1.80;;
16689;SDS011;8458;52.220;9.884;2023-01-28T12:39:25;2.90;;;2.70;;
16689;SDS011;8458;52.220;9.884;2023-01-28T12:42:06;2.63;;;2.30;;
16689;SDS011;8458;52.220;9.884;2023-01-28T12:44:36;3.50;;;3.27;;
16689;SDS011;8458;52.220;9.884;2023-01-28T12:47:09;2.83;;;2.20;;
16689;SDS011;8458;52.220;9.884;2023-01-28T12:49:38;2.17;;;2.00;;
16689;SDS011;8458;52.220;9.884;2023-01-28T12:52:09;1.90;;;1.80;;
16689;SDS011;8458;52.220;9.884;2023-01-28T12:54:40;2.77;;;1.90;;
16689;SDS011;8458;52.220;9.884;2023-01-28T12:57:23;2.10;;;1.80;;
16689;SDS011;8458;52.220;9.884;2023-01-28T12:59:52;2.87;;;2.43;;
16689;SDS011;8458;52.220;9.884;2023-01-28T13:02:25;2.23;;;2.03;;
16689;SDS011;8458;52.220;9.884;2023-01-28T13:04:59;1.97;;;1.87;;
16689;SDS011;8458;52.220;9.884;2023-01-28T13:07:33;1.93;;;1.80;;
16689;SDS011;8458;52.220;9.884;2023-01-28T13:10:05;1.90;;;1.80;;
16689;SDS011;8458;52.220;9.884;2023-01-28T13:12:37;2.10;;;2.00;;
16689;SDS011;8458;52.220;9.884;2023-01-28T13:15:09;1.97;;;1.87;;
16689;SDS011;8458;52.220;9.884;2023-01-28T13:17:38;1.80;;;1.70;;
16689;SDS011;8458;52.220;9.884;2023-01-28T13:20:12;2.13;;;1.63;;
16689;SDS011;8458;52.220;9.884;2023-01-28T13:22:42;2.30;;;2.10;;
16689;SDS011;8458;52.220;9.884;2023-01-28T13:25:18;2.20;;;2.00;;
16689;SDS011;8458;52.220;9.884;2023-01-28T13:27:53;2.60;;;2.17;;
16689;SDS011;8458;52.220;9.884;2023-01-28T13:30:24;2.73;;;2.53;;
16689;SDS011;8458;52.220;9.884;2023-01-28T13:32:56;2.57;;;1.90;;
16689;SDS011;8458;52.220;9.884;2023-01-28T13:35:29;2.40;;;2.20;;
16689;SDS011;8458;52.220;9.884;2023-01-28T13:37:59;2.63;;;2.37;;
16689;SDS011;8458;52.220;9.884;2023-01-28T13:40:32;2.13;;;1.90;;
16689;SDS011;8458;52.220;9.884;2023-01-28T13:43:00;2.10;;;2.00;;
16689;SDS011;8458;52.220;9.884;2023-01-28T13:45:29;2.83;;;2.63;;
16689;SDS011;8458;52.220;9.884;2023-01-28T13:47:57;2.63;;;2.40;;
16689;SDS011;8458;52.220;9.884;2023-01-28T13:50:31;1.87;;;1.77;;
16689;SDS011;8458;52.220;9.884;2023-01-28T13:53:04;1.67;;;1.57;;
16689;SDS011;8458;52.220;9.884;2023-01-28T13:55:47;1.90;;;1.80;;
16689;SDS011;8458;52.220;9.884;2023-01-28T13:58:32;2.20;;;2.00;;
16689;SDS011;8458;52.220;9.884;2023-01-28T14:07:40;2.10;;;1.80;;
16689;SDS011;8458;52.220;9.884;2023-01-28T14:10:27;1.93;;;1.80;;
16689;SDS011;8458;52.220;9.884;2023-01-28T14:13:07;1.60;;;1.50;;
16689;SDS011;8458;52.220;9.884;2023-01-28T14:18:42;1.57;;;1.40;;
16689;SDS011;8458;52.220;9.884;2023-01-28T14:21:11;1.70;;;1.53;;
16689;SDS011;8458;52.220;9.884;2023-01-28T14:23:43;1.87;;;1.77;;
16689;SDS011;8458;52.220;9.884;2023-01-28T14:26:19;1.50;;;1.40;;
16689;SDS011;8458;52.220;9.884;2023-01-28T14:28:55;1.80;;;1.70;;
16689;SDS011;8458;52.220;9.884;2023-01-28T14:31:31;2.30;;;1.70;;
16689;SDS011;8458;52.220;9.884;2023-01-28T14:34:04;1.80;;;1.50;;
16689;SDS011;8458;52.220;9.884;2023-01-28T14:36:36;1.67;;;1.50;;
16689;SDS011;8458;52.220;9.884;2023-01-28T14:39:05;1.80;;;1.70;;
16689;SDS011;8458;52.220;9.884;2023-01-28T14:41:38;3.13;;;2.50;;
16689;SDS011;8458;52.220;9.884;2023-01-28T14:44:08;3.90;;;3.27;;
16689;SDS011;8458;52.220;9.884;2023-01-28T14:46:48;3.47;;;2.40;;
16689;SDS011;8458;52.220;9.884;2023-01-28T14:49:26;3.20;;;2.90;;
16689;SDS011;8458;52.220;9.884;2023-01-28T14:52:08;2.60;;;2.40;;
16689;SDS011;8458;52.220;9.884;2023-01-28T14:54:50;1.93;;;1.80;;
16689;SDS011;8458;52.220;9.884;2023-01-28T14:57:36;3.10;;;2.90;;
16689;SDS011;8458;52.220;9.884;2023-01-28T15:00:15;3.43;;;2.90;;
16689;SDS011;8458;52.220;9.884;2023-01-28T15:02:44;2.60;;;2.40;;
16689;SDS011;8458;52.220;9.884;2023-01-28T15:05:14;2.60;;;1.90;;
16689;SDS011;8458;52.220;9.884;2023-01-28T15:07:42;2.40;;;1.60;;
16689;SDS011;8458;52.220;9.884;2023-01-28T15:10:13;1.60;;;1.50;;
16689;SDS011;8458;52.220;9.884;2023-01-28T15:12:45;1.83;;;1.73;;
16689;SDS011;8458;52.220;9.884;2023-01-28T15:15:17;2.20;;;1.97;;
16689;SDS011;8458;52.220;9.884;2023-01-28T15:17:49;2.60;;;2.00;;
16689;SDS011;8458;52.220;9.884;2023-01-28T15:20:17;2.30;;;2.10;;
16689;SDS011;8458;52.220;9.884;2023-01-28T15:22:45;2.50;;;2.30;;
16689;SDS011;8458;52.220;9.884;2023-01-28T15:25:15;2.73;;;2.00;;
16689;SDS011;8458;52.220;9.884;2023-01-28T15:27:45;2.40;;;2.30;;
16689;SDS011;8458;52.220;9.884;2023-01-28T15:30:23;2.20;;;2.00;;
16689;SDS011;8458;52.220;9.884;2023-01-28T15:33:01;2.50;;;2.30;;
16689;SDS011;8458;52.220;9.884;2023-01-28T15:35:30;3.03;;;2.73;;
16689;SDS011;8458;52.220;9.884;2023-01-28T15:37:57;3.07;;;2.60;;
16689;SDS011;8458;52.220;9.884;2023-01-28T15:40:24;2.60;;;2.40;;